Time,TemperatureF,DewpointF,PressureIn,WindDirection,WindDirectionDegrees,WindSpeedMPH,WindSpeedGustMPH,Humidity,HourlyPrecipIn,Conditions,Clouds,dailyrainin,SoftwareType,DateUTC
2013-09-23 00:02:00,58.6,52.1,29.78,SE,140,10.6,10.6,79,0.00,,SKC,0.00,WeatherDisplay:10.37,2013-09-23 05:02:00,
2013-09-23 00:07:00,58.4,52.3,29.78,ESE,120,8.5,8.5,80,0.00,,SKC,0.00,WeatherDisplay:10.37,2013-09-23 05:07:00,
2013-09-23 00:12:00,58.2,52.1,29.78,SSE,148,8.5,8.5,80,0.00,,SKC,0.00,WeatherDisplay:10.37,2013-09-23 05:12:00,
2013-09-23 00:17:00,58.0,51.9,29.78,SE,132,7.4,7.4,80,0.00,,SKC,0.00,WeatherDisplay:10.37,2013-09-23 05:17:00,
2013-09-23 00:22:00,57.9,51.8,29.78,SSE,167,6.9,6.9,80,0.00,,SKC,0.00,WeatherDisplay:10.37,2013-09-23 05:22:00,
2013-09-23 00:27:00,57.6,51.5,29.78,ESE,120,6.4,6.4,80,0.00,,SKC,0.00,WeatherDisplay:10.37,2013-09-23 05:27:00,
2013-09-23 00:32:00,57.6,51.8,29.78,ESE,120,6.9,6.9,81,0.00,,SKC,0.00,WeatherDisplay:10.37,2013-09-23 05:32:00,
2013-09-23 00:37:00,57.5,51.7,29.78,SE,124,6.9,6.9,81,0.00,,SKC,0.00,WeatherDisplay:10.37,2013-09-23 05:37:00,
2013-09-23 00:42:00,57.4,51.6,29.78,ESE,113,7.4,7.4,81,0.00,,SKC,0.00,WeatherDisplay:10.37,2013-09-23 05:42:00,
2013-09-23 00:47:00,57.3,51.5,29.78,SE,131,7.4,7.4,81,0.00,,SKC,0.00,WeatherDisplay:10.37,2013-09-23 05:47:00,
2013-09-23 00:52:00,57.1,51.3,29.78,SE,131,6.9,6.9,81,0.00,,SKC,0.00,WeatherDisplay:10.37,2013-09-23 05:52:00,
2013-09-23 00:57:00,57.1,51.3,29.78,SE,133,6.9,6.9,81,0.00,,SKC,0.00,WeatherDisplay:10.37,2013-09-23 05:57:00,
2013-09-23 01:02:00,57.1,51.3,29.78,SE,125,7.4,7.4,81,0.00,,SKC,0.00,WeatherDisplay:10.37,2013-09-23 06:02:00,
2013-09-23 01:07:00,57.1,51.3,29.78,ESE,103,8.5,8.5,81,0.00,,SKC,0.00,WeatherDisplay:10.37,2013-09-23 06:07:00,
2013-09-23 01:13:00,57.1,51.3,29.78,SE,126,8.1,8.1,81,0.00,,SKC,0.00,WeatherDisplay:10.37,2013-09-23 06:13:00,
2013-09-23 01:18:00,57.1,51.3,29.78,ESE,113,7.4,7.4,81,0.00,,SKC,0.00,WeatherDisplay:10.37,2013-09-23 06:18:00,
2013-09-23 01:23:00,57.1,51.3,29.78,ESE,113,7.4,7.4,81,0.00,,SKC,0.00,WeatherDisplay:10.37,2013-09-23 06:23:00,
2013-09-23 01:28:00,57.0,51.2,29.78,ESE,122,7.4,7.4,81,0.00,,SKC,0.00,WeatherDisplay:10.37,2013-09-23 06:28:00,
2013-09-23 01:33:00,56.8,51.0,29.78,SE,144,4.6,4.6,81,0.00,,SKC,0.00,WeatherDisplay:10.37,2013-09-23 06:33:00,
2013-09-23 01:38:00,56.7,50.9,29.78,SE,129,5.3,5.3,81,0.00,,SKC,0.00,WeatherDisplay:10.37,2013-09-23 06:38:00,
2013-09-23 01:43:00,56.5,51.1,29.79,SE,137,4.6,4.6,82,0.00,,SKC,0.00,WeatherDisplay:10.37,2013-09-23 06:43:00,
2013-09-23 01:48:00,56.4,51.0,29.79,SE,127,6.9,6.9,82,0.00,,SKC,0.00,WeatherDisplay:10.37,2013-09-23 06:48:00,
2013-09-23 01:53:00,56.0,50.9,29.78,ESE,109,4.6,4.6,83,0.00,,SKC,0.00,WeatherDisplay:10.37,2013-09-23 06:53:00,
2013-09-23 01:58:00,55.8,50.7,29.79,SE,134,4.6,4.6,83,0.00,,SKC,0.00,WeatherDisplay:10.37,2013-09-23 06:58:00,
2013-09-23 02:03:00,55.6,50.5,29.78,ESE,117,5.3,5.3,83,0.00,,SKC,0.00,WeatherDisplay:10.37,2013-09-23 07:03:00,
2013-09-23 02:08:00,55.6,50.8,29.78,SE,141,5.8,5.8,84,0.00,,SKC,0.00,WeatherDisplay:10.37,2013-09-23 07:08:00,
2013-09-23 02:13:00,55.5,50.7,29.78,SE,135,5.8,5.8,84,0.00,,SKC,0.00,WeatherDisplay:10.37,2013-09-23 07:13:00,
2013-09-23 02:18:00,55.4,50.6,29.78,ESE,120,5.8,5.8,84,0.00,,SKC,0.00,WeatherDisplay:10.37,2013-09-23 07:18:00,
2013-09-23 02:23:00,55.4,50.3,29.78,ESE,117,8.5,8.5,83,0.00,,SKC,0.00,WeatherDisplay:10.37,2013-09-23 07:23:00,
2013-09-23 02:28:00,55.5,50.4,29.77,ESE,113,6.9,6.9,83,0.00,,SKC,0.00,WeatherDisplay:10.37,2013-09-23 07:28:00,
2013-09-23 02:33:00,55.5,50.4,29.77,ESE,119,6.9,6.9,83,0.00,,SKC,0.00,WeatherDisplay:10.37,2013-09-23 07:33:00,
2013-09-23 02:38:00,55.6,50.5,29.77,SE,132,8.5,8.5,83,0.00,,SKC,0.00,WeatherDisplay:10.37,2013-09-23 07:38:00,
2013-09-23 02:43:00,55.6,50.5,29.77,ESE,123,7.4,7.4,83,0.00,,SKC,0.00,WeatherDisplay:10.37,2013-09-23 07:43:00,
2013-09-23 02:48:00,55.5,50.4,29.77,SE,142,5.8,5.8,83,0.00,,SKC,0.00,WeatherDisplay:10.37,2013-09-23 07:48:00,
2013-09-23 02:53:00,55.4,50.3,29.77,SE,127,9.2,9.2,83,0.00,,SKC,0.00,WeatherDisplay:10.37,2013-09-23 07:53:00,
2013-09-23 02:58:00,55.2,50.1,29.77,ESE,120,8.5,8.5,83,0.00,,SKC,0.00,WeatherDisplay:10.37,2013-09-23 07:58:00,
2013-09-23 03:03:00,55.1,50.4,29.76,ESE,120,7.4,7.4,84,0.00,,SKC,0.00,WeatherDisplay:10.37,2013-09-23 08:03:00,
2013-09-23 03:08:00,55.1,50.4,29.76,SE,129,6.9,6.9,84,0.00,,SKC,0.00,WeatherDisplay:10.37,2013-09-23 08:08:00,
2013-09-23 03:13:00,55.1,50.4,29.76,ESE,118,8.1,8.1,84,0.00,,SKC,0.00,WeatherDisplay:10.37,2013-09-23 08:13:00,
2013-09-23 03:18:00,55.1,50.4,29.76,SE,135,7.4,7.4,84,0.00,,SKC,0.00,WeatherDisplay:10.37,2013-09-23 08:18:00,
2013-09-23 03:23:00,55.0,50.3,29.76,SE,141,7.4,7.4,84,0.00,,SKC,0.00,WeatherDisplay:10.37,2013-09-23 08:23:00,
2013-09-23 03:28:00,55.0,50.3,29.76,ESE,116,9.5,9.5,84,0.00,,SKC,0.00,WeatherDisplay:10.37,2013-09-23 08:28:00,
2013-09-23 03:33:00,54.8,50.1,29.76,East,86,6.9,6.9,84,0.00,,SKC,0.00,WeatherDisplay:10.37,2013-09-23 08:33:00,
2013-09-23 03:38:00,54.8,50.1,29.76,SE,139,7.4,7.4,84,0.00,,SKC,0.00,WeatherDisplay:10.37,2013-09-23 08:38:00,
2013-09-23 03:43:00,54.7,50.0,29.76,ESE,107,6.9,6.9,84,0.00,,SKC,0.00,WeatherDisplay:10.37,2013-09-23 08:43:00,
2013-09-23 03:48:00,54.5,50.1,29.76,ESE,108,8.5,8.5,85,0.00,,SKC,0.00,WeatherDisplay:10.37,2013-09-23 08:48:00,
2013-09-23 03:53:00,54.4,50.0,29.75,ESE,121,5.8,5.8,85,0.00,,SKC,0.00,WeatherDisplay:10.37,2013-09-23 08:53:00,
2013-09-23 03:58:00,54.1,49.7,29.76,SE,140,5.8,5.8,85,0.00,,SKC,0.00,WeatherDisplay:10.37,2013-09-23 08:58:00,
2013-09-23 04:03:00,53.9,49.8,29.76,SE,134,5.3,5.3,86,0.00,,SKC,0.00,WeatherDisplay:10.37,2013-09-23 09:03:00,
2013-09-23 04:08:00,53.8,49.7,29.76,SE,128,6.9,6.9,86,0.00,,SKC,0.00,WeatherDisplay:10.37,2013-09-23 09:08:00,
2013-09-23 04:13:00,53.7,49.6,29.76,SE,127,6.9,6.9,86,0.00,,SKC,0.00,WeatherDisplay:10.37,2013-09-23 09:13:00,
2013-09-23 04:18:00,53.7,49.9,29.76,SE,133,6.9,6.9,87,0.00,,SKC,0.00,WeatherDisplay:10.37,2013-09-23 09:18:00,
2013-09-23 04:23:00,53.7,49.9,29.76,SE,128,6.9,6.9,87,0.00,,SKC,0.00,WeatherDisplay:10.37,2013-09-23 09:23:00,
2013-09-23 04:28:00,53.7,49.9,29.76,SE,124,7.4,7.4,87,0.00,,SKC,0.00,WeatherDisplay:10.37,2013-09-23 09:28:00,
2013-09-23 04:33:00,53.7,49.9,29.76,ESE,117,6.9,6.9,87,0.00,,SKC,0.00,WeatherDisplay:10.37,2013-09-23 09:33:00,
2013-09-23 04:38:00,53.8,50.0,29.76,SSE,150,6.9,6.9,87,0.00,,SKC,0.00,WeatherDisplay:10.37,2013-09-23 09:38:00,
2013-09-23 04:43:00,53.7,49.9,29.76,SSE,147,7.4,7.4,87,0.00,,SKC,0.00,WeatherDisplay:10.37,2013-09-23 09:43:00,
2013-09-23 04:48:00,53.8,50.0,29.76,SSE,153,7.4,7.4,87,0.00,,SKC,0.00,WeatherDisplay:10.37,2013-09-23 09:48:00,
2013-09-23 04:53:00,53.7,49.9,29.76,SE,139,5.8,5.8,87,0.00,,SKC,0.00,WeatherDisplay:10.37,2013-09-23 09:53:00,
2013-09-23 04:58:00,53.7,49.9,29.76,ESE,122,6.9,6.9,87,0.00,,SKC,0.00,WeatherDisplay:10.37,2013-09-23 09:58:00,
2013-09-23 05:03:00,53.7,49.9,29.75,ESE,115,7.4,7.4,87,0.00,,SKC,0.00,WeatherDisplay:10.37,2013-09-23 10:03:00,
2013-09-23 05:08:00,53.4,49.6,29.75,SSE,157,8.1,8.1,87,0.00,,SKC,0.00,WeatherDisplay:10.37,2013-09-23 10:08:00,
2013-09-23 05:13:00,53.2,49.7,29.75,SE,146,8.5,8.5,88,0.00,,SKC,0.00,WeatherDisplay:10.37,2013-09-23 10:13:00,
2013-09-23 05:18:00,53.2,49.7,29.75,SSE,151,9.2,9.2,88,0.00,,SKC,0.00,WeatherDisplay:10.37,2013-09-23 10:18:00,
2013-09-23 05:23:00,53.0,49.5,29.75,ESE,114,6.9,6.9,88,0.00,,SKC,0.00,WeatherDisplay:10.37,2013-09-23 10:23:00,
2013-09-23 05:28:00,52.8,49.6,29.75,ESE,116,9.5,9.5,89,0.00,,SKC,0.00,WeatherDisplay:10.37,2013-09-23 10:28:00,
2013-09-23 05:33:00,52.8,49.6,29.75,East,89,6.9,6.9,89,0.00,,SKC,0.00,WeatherDisplay:10.37,2013-09-23 10:33:00,
2013-09-23 05:38:00,52.6,49.4,29.75,ESE,115,8.5,8.5,89,0.00,,SKC,0.00,WeatherDisplay:10.37,2013-09-23 10:38:00,
2013-09-23 05:43:00,52.5,49.4,29.75,SE,129,8.1,8.1,89,0.00,,SKC,0.00,WeatherDisplay:10.37,2013-09-23 10:43:00,
2013-09-23 05:49:00,52.4,49.3,29.75,SE,132,7.4,7.4,89,0.00,,SKC,0.00,WeatherDisplay:10.37,2013-09-23 10:49:00,
2013-09-23 05:54:00,52.3,49.2,29.75,East,79,7.4,7.4,89,0.00,,SKC,0.00,WeatherDisplay:10.37,2013-09-23 10:54:00,
2013-09-23 05:59:00,52.3,49.5,29.74,SE,124,7.4,7.4,90,0.00,,SKC,0.00,WeatherDisplay:10.37,2013-09-23 10:59:00,
2013-09-23 06:04:00,52.4,49.6,29.75,ESE,120,10.6,10.6,90,0.00,,SKC,0.00,WeatherDisplay:10.37,2013-09-23 11:04:00,
2013-09-23 06:09:00,52.5,49.4,29.75,ESE,113,6.9,6.9,89,0.00,,SKC,0.00,WeatherDisplay:10.37,2013-09-23 11:09:00,
2013-09-23 06:14:00,52.5,49.4,29.75,ESE,122,6.9,6.9,89,0.00,,SKC,0.00,WeatherDisplay:10.37,2013-09-23 11:14:00,
2013-09-23 06:19:00,52.6,49.4,29.75,SE,124,8.5,8.5,89,0.00,,SKC,0.00,WeatherDisplay:10.37,2013-09-23 11:19:00,
2013-09-23 06:24:00,52.7,49.5,29.76,SE,136,10.6,10.6,89,0.00,,SKC,0.00,WeatherDisplay:10.37,2013-09-23 11:24:00,
2013-09-23 06:29:00,52.8,49.6,29.76,SE,124,8.1,8.1,89,0.00,,SKC,0.00,WeatherDisplay:10.37,2013-09-23 11:29:00,
2013-09-23 06:34:00,52.7,49.5,29.76,East,99,8.5,8.5,89,0.00,,SKC,0.00,WeatherDisplay:10.37,2013-09-23 11:34:00,
2013-09-23 06:39:00,52.7,49.5,29.77,SE,139,6.9,6.9,89,0.00,,SKC,0.00,WeatherDisplay:10.37,2013-09-23 11:39:00,
2013-09-23 06:44:00,52.6,49.4,29.77,SE,143,5.3,5.3,89,0.00,,SKC,0.00,WeatherDisplay:10.37,2013-09-23 11:44:00,
2013-09-23 06:49:00,52.5,49.4,29.77,SE,130,5.8,5.8,89,0.00,,SKC,0.00,WeatherDisplay:10.37,2013-09-23 11:49:00,
2013-09-23 06:54:00,52.3,49.5,29.77,SE,135,6.9,6.9,90,0.00,,SKC,0.00,WeatherDisplay:10.37,2013-09-23 11:54:00,
2013-09-23 06:59:00,52.2,49.4,29.77,ESE,121,6.9,6.9,90,0.00,,SKC,0.00,WeatherDisplay:10.37,2013-09-23 11:59:00,
2013-09-23 07:04:00,52.1,49.3,29.77,SE,125,5.8,5.8,90,0.00,,SKC,0.00,WeatherDisplay:10.37,2013-09-23 12:04:00,
2013-09-23 07:09:00,52.0,49.2,29.77,SE,130,8.1,8.1,90,0.00,,SKC,0.00,WeatherDisplay:10.37,2013-09-23 12:09:00,
2013-09-23 07:14:00,51.9,49.1,29.77,SE,141,7.4,7.4,90,0.00,,SKC,0.00,WeatherDisplay:10.37,2013-09-23 12:14:00,
2013-09-23 07:19:00,51.9,49.4,29.78,SE,146,6.9,6.9,91,0.00,,SKC,0.00,WeatherDisplay:10.37,2013-09-23 12:19:00,
2013-09-23 07:24:00,51.9,49.4,29.78,SE,134,6.9,6.9,91,0.00,,SKC,0.00,WeatherDisplay:10.37,2013-09-23 12:24:00,
2013-09-23 07:29:00,52.0,49.5,29.78,ESE,117,6.4,6.4,91,0.00,,SKC,0.00,WeatherDisplay:10.37,2013-09-23 12:29:00,
2013-09-23 07:34:00,52.2,49.4,29.78,SE,146,6.9,6.9,90,0.00,,SKC,0.00,WeatherDisplay:10.37,2013-09-23 12:34:00,
2013-09-23 07:39:00,52.7,49.8,29.78,ESE,115,9.5,9.5,90,0.00,,SKC,0.00,WeatherDisplay:10.37,2013-09-23 12:39:00,
2013-09-23 07:44:00,53.1,49.9,29.77,SE,130,8.5,8.5,89,0.00,,SKC,0.00,WeatherDisplay:10.37,2013-09-23 12:44:00,
2013-09-23 07:49:00,53.3,50.1,29.77,ESE,108,7.4,7.4,89,0.00,,SKC,0.00,WeatherDisplay:10.37,2013-09-23 12:49:00,
2013-09-23 07:54:00,53.6,50.1,29.78,SE,137,9.5,9.5,88,0.00,,SKC,0.00,WeatherDisplay:10.37,2013-09-23 12:54:00,
2013-09-23 07:59:00,54.0,50.5,29.78,SE,144,7.4,7.4,88,0.00,,SKC,0.00,WeatherDisplay:10.37,2013-09-23 12:59:00,
2013-09-23 08:04:00,54.4,50.6,29.78,SE,144,7.4,7.4,87,0.00,,SKC,0.00,WeatherDisplay:10.37,2013-09-23 13:04:00,
2013-09-23 08:09:00,54.7,50.9,29.78,SE,136,10.6,10.6,87,0.00,,SKC,0.00,WeatherDisplay:10.37,2013-09-23 13:09:00,
2013-09-23 08:14:00,55.1,51.0,29.78,SE,136,6.0,13.0,86,0.00,,SKC,0.00,WeatherDisplay:10.37,2013-09-23 13:14:00,
2013-09-23 08:19:00,55.5,51.1,29.78,SSE,148,8.1,8.1,85,0.00,,SKC,0.00,WeatherDisplay:10.37,2013-09-23 13:19:00,
2013-09-23 08:24:00,55.8,51.4,29.78,SE,141,8.5,8.5,85,0.00,,SKC,0.00,WeatherDisplay:10.37,2013-09-23 13:24:00,
2013-09-23 08:29:00,55.6,51.2,29.78,SE,137,5.0,12.0,85,0.00,,SKC,0.00,WeatherDisplay:10.37,2013-09-23 13:29:00,
2013-09-23 08:34:00,55.7,51.3,29.77,ESE,117,10.6,10.6,85,0.00,,SKC,0.00,WeatherDisplay:10.37,2013-09-23 13:34:00,
2013-09-23 08:39:00,55.9,51.5,29.77,SE,140,10.6,10.6,85,0.00,,SKC,0.00,WeatherDisplay:10.37,2013-09-23 13:39:00,
2013-09-23 08:44:00,56.4,51.6,29.77,SE,136,8.5,8.5,84,0.00,,SKC,0.00,WeatherDisplay:10.37,2013-09-23 13:44:00,
2013-09-23 08:49:00,57.2,52.1,29.76,SE,138,10.6,10.6,83,0.00,,SKC,0.00,WeatherDisplay:10.37,2013-09-23 13:49:00,
2013-09-23 08:54:00,57.9,52.4,29.76,ESE,118,9.2,9.2,82,0.00,,SKC,0.00,WeatherDisplay:10.37,2013-09-23 13:54:00,
2013-09-23 08:59:00,58.4,52.2,29.76,SE,133,9.0,13.0,80,0.00,,SKC,0.00,WeatherDisplay:10.37,2013-09-23 13:59:00,
2013-09-23 09:04:00,58.8,52.3,29.76,SE,127,11.5,11.5,79,0.00,,SKC,0.00,WeatherDisplay:10.37,2013-09-23 14:04:00,
2013-09-23 09:09:00,59.7,52.8,29.77,ESE,113,9.5,9.5,78,0.00,,SKC,0.00,WeatherDisplay:10.37,2013-09-23 14:09:00,
2013-09-23 09:14:00,60.5,52.9,29.76,SE,146,11.5,11.5,76,0.00,,SKC,0.00,WeatherDisplay:10.37,2013-09-23 14:14:00,
2013-09-23 09:19:00,61.4,52.7,29.77,SSE,165,13.8,13.8,73,0.00,,SKC,0.00,WeatherDisplay:10.37,2013-09-23 14:19:00,
2013-09-23 09:24:00,61.9,52.8,29.76,ESE,122,13.8,13.8,72,0.00,,SKC,0.00,WeatherDisplay:10.37,2013-09-23 14:24:00,
2013-09-23 09:29:00,62.4,53.3,29.76,SSE,152,10.6,10.6,72,0.00,,SKC,0.00,WeatherDisplay:10.37,2013-09-23 14:29:00,
2013-09-23 09:34:00,62.4,52.9,29.76,SSE,158,13.8,13.8,71,0.00,,SKC,0.00,WeatherDisplay:10.37,2013-09-23 14:34:00,
2013-09-23 09:39:00,62.2,52.7,29.77,SE,127,15.9,15.9,71,0.00,,SKC,0.00,WeatherDisplay:10.37,2013-09-23 14:39:00,
2013-09-23 09:45:00,61.8,52.7,29.76,SE,130,14.8,14.8,72,0.00,,SKC,0.00,WeatherDisplay:10.37,2013-09-23 14:45:00,
2013-09-23 09:50:00,62.5,53.3,29.77,ESE,122,10.6,10.6,72,0.00,,SKC,0.00,WeatherDisplay:10.37,2013-09-23 14:50:00,
2013-09-23 09:55:00,63.4,53.8,29.77,SE,124,15.0,15.0,71,0.00,,SKC,0.00,WeatherDisplay:10.37,2013-09-23 14:55:00,
2013-09-23 10:00:00,63.8,53.8,29.77,South,169,13.8,13.8,70,0.00,,SKC,0.00,WeatherDisplay:10.37,2013-09-23 15:00:00,
2013-09-23 10:05:00,64.2,54.2,29.77,ESE,122,13.8,13.8,70,0.00,,SKC,0.00,WeatherDisplay:10.37,2013-09-23 15:05:00,
2013-09-23 10:10:00,64.9,54.5,29.77,SSW,200,12.7,12.7,69,0.00,,SKC,0.00,WeatherDisplay:10.37,2013-09-23 15:10:00,
2013-09-23 10:15:00,65.1,53.9,29.76,SSE,153,11.5,11.5,67,0.00,,SKC,0.00,WeatherDisplay:10.37,2013-09-23 15:15:00,
2013-09-23 10:20:00,65.7,54.0,29.76,SE,127,15.0,15.0,66,0.00,,SKC,0.00,WeatherDisplay:10.37,2013-09-23 15:20:00,
2013-09-23 10:25:00,65.8,54.1,29.76,SSE,151,13.8,13.8,66,0.00,,SKC,0.00,WeatherDisplay:10.37,2013-09-23 15:25:00,
2013-09-23 10:30:00,66.7,54.1,29.76,SE,124,17.0,17.0,64,0.00,,SKC,0.00,WeatherDisplay:10.37,2013-09-23 15:30:00,
2013-09-23 10:35:00,67.3,53.8,29.76,SE,137,14.8,14.8,62,0.00,,SKC,0.00,WeatherDisplay:10.37,2013-09-23 15:35:00,
2013-09-23 10:40:00,67.8,54.7,29.76,SE,132,14.8,14.8,63,0.00,,SKC,0.00,WeatherDisplay:10.37,2013-09-23 15:40:00,
2013-09-23 10:45:00,68.3,55.2,29.76,SSE,155,13.8,13.8,63,0.00,,SKC,0.00,WeatherDisplay:10.37,2013-09-23 15:45:00,
2013-09-23 10:50:00,68.7,54.7,29.75,SSE,155,11.7,11.7,61,0.00,,SKC,0.00,WeatherDisplay:10.37,2013-09-23 15:50:00,
2013-09-23 10:55:00,69.4,54.9,29.75,SSE,148,15.0,15.0,60,0.00,,SKC,0.00,WeatherDisplay:10.37,2013-09-23 15:55:00,
2013-09-23 11:00:00,70.0,55.5,29.75,SSE,155,10.6,10.6,60,0.00,,SKC,0.00,WeatherDisplay:10.37,2013-09-23 16:00:00,
2013-09-23 11:05:00,70.8,55.8,29.75,SSE,164,17.0,17.0,59,0.00,,SKC,0.00,WeatherDisplay:10.37,2013-09-23 16:05:00,
2013-09-23 11:10:00,70.8,54.3,29.75,SE,136,23.3,23.3,56,0.00,,SKC,0.00,WeatherDisplay:10.37,2013-09-23 16:10:00,
2013-09-23 11:15:00,71.1,54.6,29.75,SW,216,17.3,17.3,56,0.00,,SKC,0.00,WeatherDisplay:10.37,2013-09-23 16:15:00,
2013-09-23 11:20:00,71.2,54.7,29.75,SE,136,12.7,12.7,56,0.00,,SKC,0.00,WeatherDisplay:10.37,2013-09-23 16:20:00,
2013-09-23 11:25:00,71.6,55.1,29.75,South,176,10.6,10.6,56,0.00,,SKC,0.00,WeatherDisplay:10.37,2013-09-23 16:25:00,
2013-09-23 11:30:00,71.8,54.8,29.75,SSE,156,17.3,17.3,55,0.00,,SKC,0.00,WeatherDisplay:10.37,2013-09-23 16:30:00,
2013-09-23 11:35:00,71.9,54.3,29.75,SSE,165,18.0,18.0,54,0.00,,SKC,0.00,WeatherDisplay:10.37,2013-09-23 16:35:00,
2013-09-23 11:40:00,72.2,54.6,29.74,SSE,160,20.7,20.7,54,0.00,,SKC,0.00,WeatherDisplay:10.37,2013-09-23 16:40:00,
2013-09-23 11:45:00,72.5,54.9,29.74,ESE,119,18.4,18.4,54,0.00,,SKC,0.00,WeatherDisplay:10.37,2013-09-23 16:45:00,
2013-09-23 11:50:00,72.6,55.0,29.75,SSE,155,19.1,19.1,54,0.00,,SKC,0.00,WeatherDisplay:10.37,2013-09-23 16:50:00,
2013-09-23 11:55:00,72.6,55.0,29.74,SSE,148,12.7,12.7,54,0.00,,SKC,0.00,WeatherDisplay:10.37,2013-09-23 16:55:00,
2013-09-23 12:00:00,73.0,55.4,29.74,SSE,168,17.0,17.0,54,0.00,,SKC,0.00,WeatherDisplay:10.37,2013-09-23 17:00:00,
2013-09-23 12:05:00,73.3,54.6,29.74,South,171,18.4,18.4,52,0.00,,SKC,0.00,WeatherDisplay:10.37,2013-09-23 17:05:00,
2013-09-23 12:10:00,73.6,55.4,29.74,SSE,155,17.0,17.0,53,0.00,,SKC,0.00,WeatherDisplay:10.37,2013-09-23 17:10:00,
2013-09-23 12:15:00,73.7,54.4,29.74,South,169,24.4,24.4,51,0.00,,SKC,0.00,WeatherDisplay:10.37,2013-09-23 17:15:00,
2013-09-23 12:20:00,74.1,54.3,29.74,SE,139,19.1,19.1,50,0.00,,SKC,0.00,WeatherDisplay:10.37,2013-09-23 17:20:00,
2013-09-23 12:25:00,73.8,55.1,29.74,ESE,120,19.1,19.1,52,0.00,,SKC,0.00,WeatherDisplay:10.37,2013-09-23 17:25:00,
2013-09-23 12:30:00,73.9,54.6,29.73,ESE,119,18.4,18.4,51,0.00,,SKC,0.00,WeatherDisplay:10.37,2013-09-23 17:30:00,
2013-09-23 12:35:00,74.0,54.2,29.73,SSE,151,22.3,22.3,50,0.00,,SKC,0.00,WeatherDisplay:10.37,2013-09-23 17:35:00,
2013-09-23 12:40:00,74.3,55.0,29.73,SE,131,20.7,20.7,51,0.00,,SKC,0.00,WeatherDisplay:10.37,2013-09-23 17:40:00,
2013-09-23 12:45:00,74.5,55.2,29.73,SSW,202,19.6,19.6,51,0.00,,SKC,0.00,WeatherDisplay:10.37,2013-09-23 17:45:00,
2013-09-23 12:50:00,74.9,53.9,29.73,SE,131,18.4,18.4,48,0.00,,SKC,0.00,WeatherDisplay:10.37,2013-09-23 17:50:00,
2013-09-23 12:55:00,74.8,54.4,29.73,South,183,19.6,19.6,49,0.00,,SKC,0.00,WeatherDisplay:10.37,2013-09-23 17:55:00,
2013-09-23 13:01:00,75.0,54.0,29.73,SE,139,18.4,18.4,48,0.00,,SKC,0.00,WeatherDisplay:10.37,2013-09-23 18:01:00,
2013-09-23 13:06:00,74.9,53.3,29.72,SE,141,21.2,21.2,47,0.00,,SKC,0.00,WeatherDisplay:10.37,2013-09-23 18:06:00,
2013-09-23 13:11:00,75.2,53.6,29.73,SSE,154,20.7,20.7,47,0.00,,SKC,0.00,WeatherDisplay:10.37,2013-09-23 18:11:00,
2013-09-23 13:16:00,75.4,53.8,29.72,SSW,198,15.0,15.0,47,0.00,,SKC,0.00,WeatherDisplay:10.37,2013-09-23 18:16:00,
2013-09-23 13:21:00,75.5,53.9,29.72,ESE,123,23.3,23.3,47,0.00,,SKC,0.00,WeatherDisplay:10.37,2013-09-23 18:21:00,
2013-09-23 13:26:00,75.7,54.0,29.72,East,94,18.0,18.0,47,0.00,,SKC,0.00,WeatherDisplay:10.37,2013-09-23 18:26:00,
2013-09-23 13:31:00,76.1,54.4,29.72,SSE,161,14.8,14.8,47,0.00,,SKC,0.00,WeatherDisplay:10.37,2013-09-23 18:31:00,
2013-09-23 13:36:00,76.2,54.5,29.71,ESE,123,17.3,17.3,47,0.00,,SKC,0.00,WeatherDisplay:10.37,2013-09-23 18:36:00,
2013-09-23 13:41:00,76.1,54.4,29.71,SE,138,17.3,17.3,47,0.00,,SKC,0.00,WeatherDisplay:10.37,2013-09-23 18:41:00,
2013-09-23 13:46:00,76.4,54.1,29.71,South,187,17.3,17.3,46,0.00,,SKC,0.00,WeatherDisplay:10.37,2013-09-23 18:46:00,
2013-09-23 13:51:00,76.2,53.3,29.71,SE,133,20.1,20.1,45,0.00,,SKC,0.00,WeatherDisplay:10.37,2013-09-23 18:51:00,
2013-09-23 13:56:00,76.5,54.2,29.70,SSE,161,20.7,20.7,46,0.00,,SKC,0.00,WeatherDisplay:10.37,2013-09-23 18:56:00,
2013-09-23 14:01:00,76.6,53.7,29.70,SE,139,17.3,17.3,45,0.00,,SKC,0.00,WeatherDisplay:10.37,2013-09-23 19:01:00,
2013-09-23 14:06:00,76.6,53.1,29.70,SE,143,20.1,20.1,44,0.00,,SKC,0.00,WeatherDisplay:10.37,2013-09-23 19:06:00,
2013-09-23 14:11:00,76.7,53.8,29.69,SE,131,13.8,13.8,45,0.00,,SKC,0.00,WeatherDisplay:10.37,2013-09-23 19:11:00,
2013-09-23 14:16:00,76.9,53.3,29.69,SE,126,15.9,15.9,44,0.00,,SKC,0.00,WeatherDisplay:10.37,2013-09-23 19:16:00,
2013-09-23 14:21:00,77.1,52.9,29.69,SE,145,23.0,23.0,43,0.00,,SKC,0.00,WeatherDisplay:10.37,2013-09-23 19:21:00,
2013-09-23 14:26:00,76.9,52.7,29.69,SSE,150,15.0,15.0,43,0.00,,SKC,0.00,WeatherDisplay:10.37,2013-09-23 19:26:00,
2013-09-23 14:31:00,77.1,52.9,29.68,ESE,117,20.7,20.7,43,0.00,,SKC,0.00,WeatherDisplay:10.37,2013-09-23 19:31:00,
2013-09-23 14:36:00,76.8,52.6,29.68,East,98,23.3,23.3,43,0.00,,SKC,0.00,WeatherDisplay:10.37,2013-09-23 19:36:00,
2013-09-23 14:41:00,76.8,53.2,29.68,SSE,167,23.0,23.0,44,0.00,,SKC,0.00,WeatherDisplay:10.37,2013-09-23 19:41:00,
2013-09-23 14:46:00,77.0,54.0,29.67,East,97,20.7,20.7,45,0.00,,SKC,0.00,WeatherDisplay:10.37,2013-09-23 19:46:00,
2013-09-23 14:51:00,77.3,53.1,29.67,SE,143,20.1,20.1,43,0.00,,SKC,0.00,WeatherDisplay:10.37,2013-09-23 19:51:00,
2013-09-23 14:56:00,77.0,53.4,29.67,SE,136,23.0,23.0,44,0.00,,SKC,0.00,WeatherDisplay:10.37,2013-09-23 19:56:00,
2013-09-23 15:01:00,77.2,54.8,29.67,SE,134,18.4,18.4,46,0.00,,SKC,0.00,WeatherDisplay:10.37,2013-09-23 20:01:00,
2013-09-23 15:06:00,77.1,54.1,29.67,SE,136,20.1,20.1,45,0.00,,SKC,0.00,WeatherDisplay:10.37,2013-09-23 20:06:00,
2013-09-23 15:11:00,77.2,54.8,29.67,East,98,12.7,12.7,46,0.00,,SKC,0.00,WeatherDisplay:10.37,2013-09-23 20:11:00,
2013-09-23 15:16:00,77.5,54.5,29.67,SSE,167,19.6,19.6,45,0.00,,SKC,0.00,WeatherDisplay:10.37,2013-09-23 20:16:00,
2013-09-23 15:21:00,77.5,53.9,29.67,SE,137,19.6,19.6,44,0.00,,SKC,0.00,WeatherDisplay:10.37,2013-09-23 20:21:00,
2013-09-23 15:26:00,77.4,52.5,29.66,SE,130,22.3,22.3,42,0.00,,SKC,0.00,WeatherDisplay:10.37,2013-09-23 20:26:00,
2013-09-23 15:31:00,77.1,52.2,29.66,SE,129,22.3,22.3,42,0.00,,SKC,0.00,WeatherDisplay:10.37,2013-09-23 20:31:00,
2013-09-23 15:36:00,77.5,53.9,29.66,SE,132,14.8,14.8,44,0.00,,SKC,0.00,WeatherDisplay:10.37,2013-09-23 20:36:00,
2013-09-23 15:41:00,77.3,52.4,29.66,SSE,162,25.3,25.3,42,0.00,,SKC,0.00,WeatherDisplay:10.37,2013-09-23 20:41:00,
2013-09-23 15:46:00,77.1,52.2,29.65,ESE,122,23.3,23.3,42,0.00,,SKC,0.00,WeatherDisplay:10.37,2013-09-23 20:46:00,
2013-09-23 15:51:00,77.5,53.2,29.65,SE,124,26.5,26.5,43,0.00,,SKC,0.00,WeatherDisplay:10.37,2013-09-23 20:51:00,
2013-09-23 15:56:00,77.7,53.4,29.64,ESE,115,20.1,20.1,43,0.00,,SKC,0.00,WeatherDisplay:10.37,2013-09-23 20:56:00,
2013-09-23 16:01:00,77.8,52.9,29.64,SE,145,21.2,21.2,42,0.00,,SKC,0.00,WeatherDisplay:10.37,2013-09-23 21:01:00,
2013-09-23 16:06:00,77.7,53.4,29.65,ESE,109,22.3,22.3,43,0.00,,SKC,0.00,WeatherDisplay:10.37,2013-09-23 21:06:00,
2013-09-23 16:11:00,77.3,52.4,29.65,ESE,123,23.0,23.0,42,0.00,,SKC,0.00,WeatherDisplay:10.37,2013-09-23 21:11:00,
2013-09-23 16:16:00,77.4,51.9,29.66,SE,141,21.2,21.2,41,0.00,,SKC,0.00,WeatherDisplay:10.37,2013-09-23 21:16:00,
2013-09-23 16:21:00,77.5,51.9,29.66,ESE,113,17.3,17.3,41,0.00,,SKC,0.00,WeatherDisplay:10.37,2013-09-23 21:21:00,
2013-09-23 16:26:00,77.4,51.9,29.66,SE,139,19.1,19.1,41,0.00,,SKC,0.00,WeatherDisplay:10.37,2013-09-23 21:26:00,
2013-09-23 16:31:00,77.3,51.8,29.66,SE,127,21.2,21.2,41,0.00,,SKC,0.00,WeatherDisplay:10.37,2013-09-23 21:31:00,
2013-09-23 16:36:00,77.2,51.7,29.65,SSE,154,21.2,21.2,41,0.00,,SKC,0.00,WeatherDisplay:10.37,2013-09-23 21:36:00,
2013-09-23 16:41:00,77.1,51.6,29.66,SSE,158,18.4,18.4,41,0.00,,SKC,0.00,WeatherDisplay:10.37,2013-09-23 21:41:00,
2013-09-23 16:46:00,77.2,51.7,29.66,SSE,165,21.2,21.2,41,0.00,,SKC,0.00,WeatherDisplay:10.37,2013-09-23 21:46:00,
2013-09-23 16:51:00,77.2,51.7,29.65,SSE,150,13.8,13.8,41,0.00,,SKC,0.00,WeatherDisplay:10.37,2013-09-23 21:51:00,
2013-09-23 16:56:00,77.2,51.7,29.65,ESE,122,20.1,20.1,41,0.00,,SKC,0.00,WeatherDisplay:10.37,2013-09-23 21:56:00,
2013-09-23 17:01:00,77.4,51.2,29.65,SE,127,20.7,20.7,40,0.00,,SKC,0.00,WeatherDisplay:10.37,2013-09-23 22:01:00,
2013-09-23 17:06:00,77.1,51.6,29.65,ESE,121,14.8,14.8,41,0.00,,SKC,0.00,WeatherDisplay:10.37,2013-09-23 22:06:00,
2013-09-23 17:11:00,77.0,50.8,29.65,SSE,160,23.0,23.0,40,0.00,,SKC,0.00,WeatherDisplay:10.37,2013-09-23 22:11:00,
2013-09-23 17:16:00,77.1,50.9,29.65,SE,140,15.9,15.9,40,0.00,,SKC,0.00,WeatherDisplay:10.37,2013-09-23 22:16:00,
2013-09-23 17:21:00,76.5,51.7,29.66,SE,129,16.1,16.1,42,0.00,,SKC,0.00,WeatherDisplay:10.37,2013-09-23 22:21:00,
2013-09-23 17:26:00,76.1,51.3,29.65,SSE,161,16.1,16.1,42,0.00,,SKC,0.00,WeatherDisplay:10.37,2013-09-23 22:26:00,
2013-09-23 17:31:00,75.4,51.3,29.65,SSE,154,18.0,18.0,43,0.00,,SKC,0.00,WeatherDisplay:10.37,2013-09-23 22:31:00,
2013-09-23 17:36:00,74.8,50.8,29.66,SE,141,14.8,14.8,43,0.00,,SKC,0.00,WeatherDisplay:10.37,2013-09-23 22:36:00,
2013-09-23 17:41:00,74.2,51.5,29.66,ESE,123,10.6,10.6,45,0.00,,SKC,0.00,WeatherDisplay:10.37,2013-09-23 22:41:00,
2013-09-23 17:46:00,74.2,50.9,29.66,SE,143,12.7,12.7,44,0.00,,SKC,0.00,WeatherDisplay:10.37,2013-09-23 22:46:00,
2013-09-23 17:51:00,74.9,50.9,29.66,SSE,151,12.7,12.7,43,0.00,,SKC,0.00,WeatherDisplay:10.37,2013-09-23 22:51:00,
2013-09-23 17:56:00,75.4,50.7,29.66,ESE,103,17.3,17.3,42,0.00,,SKC,0.00,WeatherDisplay:10.37,2013-09-23 22:56:00,
2013-09-23 18:01:00,75.7,51.0,29.66,ESE,116,13.8,13.8,42,0.00,,SKC,0.00,WeatherDisplay:10.37,2013-09-23 23:01:00,
2013-09-23 18:06:00,75.2,50.5,29.66,ESE,122,18.4,18.4,42,0.00,,SKC,0.00,WeatherDisplay:10.37,2013-09-23 23:06:00,
2013-09-23 18:11:00,74.5,50.5,29.67,ESE,103,14.8,14.8,43,0.00,,SKC,0.00,WeatherDisplay:10.37,2013-09-23 23:11:00,
2013-09-23 18:16:00,74.2,50.3,29.67,ESE,113,15.0,15.0,43,0.00,,SKC,0.00,WeatherDisplay:10.37,2013-09-23 23:16:00,
2013-09-23 18:21:00,73.8,49.9,29.67,ESE,113,13.8,13.8,43,0.00,,SKC,0.00,WeatherDisplay:10.37,2013-09-23 23:21:00,
2013-09-23 18:26:00,73.7,50.4,29.66,ESE,111,12.7,12.7,44,0.00,,SKC,0.00,WeatherDisplay:10.37,2013-09-23 23:26:00,
2013-09-23 18:31:00,73.6,50.3,29.66,SE,142,17.3,17.3,44,0.00,,SKC,0.00,WeatherDisplay:10.37,2013-09-23 23:31:00,
2013-09-23 18:37:00,73.4,50.2,29.67,SSE,158,16.1,16.1,44,0.00,,SKC,0.00,WeatherDisplay:10.37,2013-09-23 23:37:00,
2013-09-23 18:42:00,72.9,50.3,29.67,SE,124,10.6,10.6,45,0.00,,SKC,0.00,WeatherDisplay:10.37,2013-09-23 23:42:00,
2013-09-23 18:47:00,72.7,50.1,29.67,SE,139,11.7,11.7,45,0.00,,SKC,0.00,WeatherDisplay:10.37,2013-09-23 23:47:00,
2013-09-23 18:52:00,72.6,50.0,29.67,SE,133,14.8,14.8,45,0.00,,SKC,0.00,WeatherDisplay:10.37,2013-09-23 23:52:00,
2013-09-23 18:57:00,72.3,50.4,29.67,SE,138,10.4,10.4,46,0.00,,SKC,0.00,WeatherDisplay:10.37,2013-09-23 23:57:00,
2013-09-23 19:02:00,72.1,50.8,29.67,SE,130,9.5,9.5,47,0.00,,SKC,0.00,WeatherDisplay:10.37,2013-09-24 00:02:00,
2013-09-23 19:07:00,72.0,50.7,29.66,East,91,11.7,11.7,47,0.00,,SKC,0.00,WeatherDisplay:10.37,2013-09-24 00:07:00,
2013-09-23 19:12:00,72.0,50.7,29.66,SE,133,13.8,13.8,47,0.00,,SKC,0.00,WeatherDisplay:10.37,2013-09-24 00:12:00,
2013-09-23 19:17:00,71.7,51.0,29.67,SE,146,9.5,9.5,48,0.00,,SKC,0.00,WeatherDisplay:10.37,2013-09-24 00:17:00,
2013-09-23 19:22:00,71.1,52.0,29.67,ESE,121,7.4,7.4,51,0.00,,SKC,0.00,WeatherDisplay:10.37,2013-09-24 00:22:00,
2013-09-23 19:27:00,70.5,52.0,29.66,ESE,108,10.6,10.6,52,0.00,,SKC,0.00,WeatherDisplay:10.37,2013-09-24 00:27:00,
2013-09-23 19:32:00,70.2,52.3,29.66,ESE,120,11.7,11.7,53,0.00,,SKC,0.00,WeatherDisplay:10.37,2013-09-24 00:32:00,
2013-09-23 19:37:00,69.9,52.5,29.66,ESE,119,7.4,7.4,54,0.00,,SKC,0.00,WeatherDisplay:10.37,2013-09-24 00:37:00,
2013-09-23 19:42:00,69.7,52.8,29.66,ESE,122,9.5,9.5,55,0.00,,SKC,0.00,WeatherDisplay:10.37,2013-09-24 00:42:00,
2013-09-23 19:47:00,69.5,52.6,29.67,ESE,107,8.5,8.5,55,0.00,,SKC,0.00,WeatherDisplay:10.37,2013-09-24 00:47:00,
2013-09-23 19:52:00,69.2,52.3,29.67,ESE,123,8.1,8.1,55,0.00,,SKC,0.00,WeatherDisplay:10.37,2013-09-24 00:52:00,
2013-09-23 19:57:00,69.0,52.6,29.67,ESE,106,8.5,8.5,56,0.00,,SKC,0.00,WeatherDisplay:10.37,2013-09-24 00:57:00,
2013-09-23 20:02:00,68.9,52.6,29.67,ESE,103,8.1,8.1,56,0.00,,SKC,0.00,WeatherDisplay:10.37,2013-09-24 01:02:00,
2013-09-23 20:07:00,68.6,52.8,29.67,ESE,108,9.5,9.5,57,0.00,,SKC,0.00,WeatherDisplay:10.37,2013-09-24 01:07:00,
2013-09-23 20:12:00,68.4,52.6,29.67,ESE,113,9.2,9.2,57,0.00,,SKC,0.00,WeatherDisplay:10.37,2013-09-24 01:12:00,
2013-09-23 20:17:00,68.2,52.9,29.67,ESE,115,8.5,8.5,58,0.00,,SKC,0.00,WeatherDisplay:10.37,2013-09-24 01:17:00,
2013-09-23 20:22:00,68.0,53.1,29.67,ESE,120,10.6,10.6,59,0.00,,SKC,0.00,WeatherDisplay:10.37,2013-09-24 01:22:00,
2013-09-23 20:27:00,67.8,52.9,29.67,East,101,9.5,9.5,59,0.00,,SKC,0.00,WeatherDisplay:10.37,2013-09-24 01:27:00,
2013-09-23 20:32:00,67.7,52.9,29.68,SE,136,8.5,8.5,59,0.00,,SKC,0.00,WeatherDisplay:10.37,2013-09-24 01:32:00,
2013-09-23 20:37:00,67.5,52.7,29.68,East,93,12.7,12.7,59,0.00,,SKC,0.00,WeatherDisplay:10.37,2013-09-24 01:37:00,
2013-09-23 20:42:00,67.5,52.7,29.68,ESE,106,12.7,12.7,59,0.00,,SKC,0.00,WeatherDisplay:10.37,2013-09-24 01:42:00,
2013-09-23 20:47:00,67.4,52.6,29.67,ESE,123,12.7,12.7,59,0.00,,SKC,0.00,WeatherDisplay:10.37,2013-09-24 01:47:00,
2013-09-23 20:52:00,67.4,53.0,29.67,East,87,13.8,13.8,60,0.00,,SKC,0.00,WeatherDisplay:10.37,2013-09-24 01:52:00,
2013-09-23 20:57:00,67.5,52.7,29.67,SSE,168,13.8,13.8,59,0.00,,SKC,0.00,WeatherDisplay:10.37,2013-09-24 01:57:00,
2013-09-23 21:02:00,67.5,52.7,29.67,SE,133,11.5,11.5,59,0.00,,SKC,0.00,WeatherDisplay:10.37,2013-09-24 02:02:00,
2013-09-23 21:14:00,67.3,52.5,29.67,SE,133,12.7,12.7,59,0.00,,SKC,0.00,WeatherDisplay:10.37,2013-09-24 02:14:00,
2013-09-23 21:19:00,67.2,52.4,29.67,ESE,118,11.7,11.7,59,0.00,,SKC,0.00,WeatherDisplay:10.37,2013-09-24 02:19:00,
2013-09-23 21:24:00,67.2,52.4,29.67,East,101,11.7,11.7,59,0.00,,SKC,0.00,WeatherDisplay:10.37,2013-09-24 02:24:00,
2013-09-23 21:29:00,67.1,52.3,29.67,East,98,15.0,15.0,59,0.00,,SKC,0.00,WeatherDisplay:10.37,2013-09-24 02:29:00,
2013-09-23 21:34:00,67.1,52.7,29.67,ESE,108,13.8,13.8,60,0.00,,SKC,0.00,WeatherDisplay:10.37,2013-09-24 02:34:00,
2013-09-23 21:39:00,67.0,52.7,29.67,ESE,103,15.9,15.9,60,0.00,,SKC,0.00,WeatherDisplay:10.37,2013-09-24 02:39:00,
2013-09-23 21:44:00,66.9,52.6,29.67,East,101,13.8,13.8,60,0.00,,SKC,0.00,WeatherDisplay:10.37,2013-09-24 02:44:00,
2013-09-23 21:49:00,66.9,52.6,29.67,East,89,13.8,13.8,60,0.00,,SKC,0.00,WeatherDisplay:10.37,2013-09-24 02:49:00,
2013-09-23 21:54:00,66.8,52.9,29.67,SSE,157,14.8,14.8,61,0.00,,SKC,0.00,WeatherDisplay:10.37,2013-09-24 02:54:00,
2013-09-23 21:59:00,66.7,52.8,29.67,ESE,110,15.0,15.0,61,0.00,,SKC,0.00,WeatherDisplay:10.37,2013-09-24 02:59:00,
2013-09-23 22:04:00,66.7,52.8,29.67,SSE,148,13.8,13.8,61,0.00,,SKC,0.00,WeatherDisplay:10.37,2013-09-24 03:04:00,
2013-09-23 22:09:00,66.7,52.8,29.67,SE,130,15.0,15.0,61,0.00,,SKC,0.00,WeatherDisplay:10.37,2013-09-24 03:09:00,
2013-09-23 22:14:00,66.6,52.7,29.67,ESE,107,12.7,12.7,61,0.00,,SKC,0.00,WeatherDisplay:10.37,2013-09-24 03:14:00,
2013-09-23 22:19:00,66.5,52.6,29.67,ESE,109,15.0,15.0,61,0.00,,SKC,0.00,WeatherDisplay:10.37,2013-09-24 03:19:00,
2013-09-23 22:24:00,66.6,52.7,29.67,ESE,120,16.1,16.1,61,0.00,,SKC,0.00,WeatherDisplay:10.37,2013-09-24 03:24:00,
2013-09-23 22:29:00,66.5,52.6,29.67,ESE,108,11.7,11.7,61,0.00,,SKC,0.00,WeatherDisplay:10.37,2013-09-24 03:29:00,
2013-09-23 22:34:00,66.4,53.0,29.67,ESE,107,14.8,14.8,62,0.00,,SKC,0.00,WeatherDisplay:10.37,2013-09-24 03:34:00,
2013-09-23 22:39:00,66.4,53.0,29.66,SSE,153,13.8,13.8,62,0.00,,SKC,0.00,WeatherDisplay:10.37,2013-09-24 03:39:00,
2013-09-23 22:44:00,66.4,53.0,29.66,ESE,114,12.7,12.7,62,0.00,,SKC,0.00,WeatherDisplay:10.37,2013-09-24 03:44:00,
2013-09-23 22:49:00,66.5,53.1,29.67,East,99,17.3,17.3,62,0.00,,SKC,0.00,WeatherDisplay:10.37,2013-09-24 03:49:00,
2013-09-23 22:54:00,66.5,53.1,29.66,SE,143,17.0,17.0,62,0.00,,SKC,0.00,WeatherDisplay:10.37,2013-09-24 03:54:00,
2013-09-23 22:59:00,66.5,53.5,29.66,ESE,119,15.0,15.0,63,0.00,,SKC,0.00,WeatherDisplay:10.37,2013-09-24 03:59:00,
2013-09-23 23:01:00,66.4,53.4,29.66,SSE,147,18.0,18.0,63,0.00,,SKC,0.00,WeatherDisplay:10.37,2013-09-24 04:01:00,
2013-09-23 23:06:00,66.5,53.5,29.66,SE,131,18.4,18.4,63,0.00,,SKC,0.00,WeatherDisplay:10.37,2013-09-24 04:06:00,
2013-09-23 23:11:00,66.6,53.6,29.66,SE,139,19.6,19.6,63,0.00,,SKC,0.00,WeatherDisplay:10.37,2013-09-24 04:11:00,
2013-09-23 23:16:00,66.7,53.7,29.66,ESE,108,20.7,20.7,63,0.00,,SKC,0.00,WeatherDisplay:10.37,2013-09-24 04:16:00,
2013-09-23 23:21:00,66.7,53.7,29.66,SE,141,17.3,17.3,63,0.00,,SKC,0.00,WeatherDisplay:10.37,2013-09-24 04:21:00,
2013-09-23 23:26:00,66.6,53.6,29.65,ESE,111,15.9,15.9,63,0.00,,SKC,0.00,WeatherDisplay:10.37,2013-09-24 04:26:00,
2013-09-23 23:31:00,66.6,53.6,29.65,SE,124,17.3,17.3,63,0.00,,SKC,0.00,WeatherDisplay:10.37,2013-09-24 04:31:00,
2013-09-23 23:36:00,66.6,54.0,29.65,ESE,122,18.0,18.0,64,0.00,,SKC,0.00,WeatherDisplay:10.37,2013-09-24 04:36:00,
2013-09-23 23:41:00,66.5,53.9,29.65,ESE,110,13.8,13.8,64,0.00,,SKC,0.00,WeatherDisplay:10.37,2013-09-24 04:41:00,
2013-09-23 23:46:00,66.6,54.0,29.65,ESE,120,16.1,16.1,64,0.00,,SKC,0.00,WeatherDisplay:10.37,2013-09-24 04:46:00,
2013-09-23 23:51:00,66.6,54.0,29.65,SSE,147,15.0,15.0,64,0.00,,SKC,0.00,WeatherDisplay:10.37,2013-09-24 04:51:00,
2013-09-23 23:56:00,66.5,53.9,29.65,SE,141,13.8,13.8,64,0.00,,SKC,0.00,WeatherDisplay:10.37,2013-09-24 04:56:00,